createdAt,value
2023-02-19T00:01:14.637Z,98767.09
2023-02-19T00:03:42.601Z,98759.09
2023-02-19T00:06:11.375Z,98766.94
2023-02-19T00:08:38.943Z,98744.28
2023-02-19T00:11:12.851Z,98745.38
2023-02-19T00:13:41.619Z,98740.47
2023-02-19T00:16:09.723Z,98758.13
2023-02-19T00:18:36.461Z,98757.44
2023-02-19T00:21:04.030Z,98765.28
2023-02-19T00:23:31.187Z,98760.53
2023-02-19T00:26:17.145Z,98761.06
2023-02-19T00:28:45.349Z,98764.88
2023-02-19T00:31:21.489Z,98775.25
2023-02-19T00:33:49.503Z,98764.19
2023-02-19T00:36:16.571Z,98757.16
2023-02-19T00:38:43.950Z,98741.63
2023-02-19T00:41:21.362Z,98750.44
2023-02-19T00:43:54.909Z,98747.34
2023-02-19T00:46:30.330Z,98747.34
2023-02-19T00:48:58.149Z,98740.38
2023-02-19T00:51:27.205Z,98749.16
2023-02-19T00:53:54.085Z,98749.59
2023-02-19T00:56:21.069Z,98748.91
2023-02-19T00:58:48.202Z,98737.81
2023-02-19T01:01:15.472Z,98739.50
2023-02-19T01:03:42.086Z,98743.03
2023-02-19T01:06:10.967Z,98741.44
2023-02-19T01:08:37.931Z,98748.13
2023-02-19T01:11:06.212Z,98743.38
2023-02-19T01:13:33.562Z,98734.09
2023-02-19T01:16:15.151Z,98736.38
2023-02-19T01:18:42.505Z,98730.34
2023-02-19T01:21:13.289Z,98729.06
2023-02-19T01:23:40.182Z,98723.47
2023-02-19T01:26:09.486Z,98728.94
2023-02-19T01:28:35.968Z,98721.84
2023-02-19T01:31:08.670Z,98728.00
2023-02-19T01:33:35.376Z,98721.97
2023-02-19T01:36:06.183Z,98718.34
2023-02-19T01:38:33.305Z,98722.28
2023-02-19T01:41:05.034Z,98727.84
2023-02-19T01:43:54.744Z,98717.66
2023-02-19T01:46:21.382Z,98717.78
2023-02-19T01:48:47.861Z,98702.28
2023-02-19T01:51:19.980Z,98708.00
2023-02-19T01:53:52.255Z,98709.69
2023-02-19T01:56:21.043Z,98699.59
2023-02-19T01:58:47.819Z,98702.84
2023-02-19T02:01:14.524Z,98702.28
2023-02-19T02:03:44.968Z,98696.09
2023-02-19T02:06:15.612Z,98689.09
2023-02-19T02:09:00.656Z,98690.31
2023-02-19T02:11:27.762Z,98703.72
2023-02-19T02:13:54.976Z,98686.69
2023-02-19T02:16:39.726Z,98682.66
2023-02-19T02:19:16.588Z,98687.25
2023-02-19T02:22:05.628Z,98676.44
2023-02-19T02:24:50.788Z,98675.34
2023-02-19T02:27:29.340Z,98667.91
2023-02-19T02:30:01.901Z,98680.22
2023-02-19T02:32:37.538Z,98663.69
2023-02-19T02:35:10.069Z,98670.31
2023-02-19T02:37:41.419Z,98669.88
2023-02-19T02:40:10.856Z,98667.78
2023-02-19T02:42:39.983Z,98678.88
2023-02-19T02:45:37.232Z,98675.22
2023-02-19T02:48:27.098Z,98664.72
2023-02-19T02:51:13.465Z,98662.78
2023-02-19T02:53:58.590Z,98663.31
2023-02-19T02:56:26.439Z,98664.25
2023-02-19T02:58:55.350Z,98657.72
2023-02-19T03:01:43.140Z,98667.38
2023-02-19T03:04:30.299Z,98663.72
2023-02-19T03:07:00.370Z,98667.22
2023-02-19T03:09:40.585Z,98655.19
2023-02-19T03:12:31.754Z,98654.22
2023-02-19T03:15:21.359Z,98653.38
2023-02-19T03:18:19.484Z,98657.00
2023-02-19T03:20:51.615Z,98662.22
2023-02-19T03:23:20.577Z,98650.88
2023-02-19T03:26:06.167Z,98659.50
2023-02-19T03:28:54.708Z,98647.34
2023-02-19T03:31:25.004Z,98650.16
2023-02-19T03:33:56.047Z,98657.56
2023-02-19T03:36:26.402Z,98663.75
2023-02-19T03:39:04.377Z,98658.44
2023-02-19T03:41:42.592Z,98658.81
2023-02-19T03:44:27.243Z,98658.13
2023-02-19T03:47:03.363Z,98663.06
2023-02-19T03:49:37.240Z,98653.94
2023-02-19T03:52:21.678Z,98656.44
2023-02-19T03:55:17.869Z,98661.59
2023-02-19T03:57:51.594Z,98654.63
2023-02-19T04:00:26.672Z,98657.56
2023-02-19T04:03:02.124Z,98651.53
2023-02-19T04:05:37.246Z,98650.28
2023-02-19T04:08:14.634Z,98637.53
2023-02-19T04:10:42.101Z,98640.63
2023-02-19T04:13:22.466Z,98650.44
2023-02-19T04:15:51.963Z,98649.94
2023-02-19T04:18:22.857Z,98657.13
2023-02-19T04:20:50.480Z,98669.72
2023-02-19T04:23:22.960Z,98667.09
2023-02-19T04:25:54.697Z,98677.88
2023-02-19T04:28:21.740Z,98669.34
2023-02-19T04:30:48.322Z,98673.53
2023-02-19T04:33:14.922Z,98662.19
2023-02-19T04:35:41.359Z,98672.25
2023-02-19T04:38:08.248Z,98681.44
2023-02-19T04:40:34.690Z,98675.63
2023-02-19T04:43:01.128Z,98682.66
2023-02-19T04:45:27.665Z,98685.59
2023-02-19T04:47:54.127Z,98682.31
2023-02-19T04:50:20.624Z,98687.09
2023-02-19T04:52:47.065Z,98699.00
2023-02-19T04:55:13.584Z,98687.09
2023-02-19T04:57:39.985Z,98695.50
2023-02-19T05:00:08.063Z,98690.16
2023-02-19T05:02:34.674Z,98697.44
2023-02-19T05:05:01.260Z,98693.88
2023-02-19T05:07:27.677Z,98691.94
2023-02-19T05:09:54.104Z,98694.78
2023-02-19T05:12:20.944Z,98692.41
2023-02-19T05:14:47.610Z,98698.28
2023-02-19T05:17:14.080Z,98698.53
2023-02-19T05:19:40.487Z,98711.69
2023-02-19T05:22:06.860Z,98708.63
2023-02-19T05:24:33.330Z,98705.66
2023-02-19T05:26:59.830Z,98715.63
2023-02-19T05:29:26.408Z,98719.97
2023-02-19T05:31:52.967Z,98705.41
2023-02-19T05:34:19.432Z,98713.69
2023-02-19T05:36:45.948Z,98716.97
2023-02-19T05:39:12.557Z,98722.94
2023-02-19T05:41:39.384Z,98735.38
2023-02-19T05:44:05.900Z,98733.56
2023-02-19T05:46:32.595Z,98732.06
2023-02-19T05:48:59.349Z,98748.19
2023-02-19T05:51:27.308Z,98747.03
2023-02-19T05:53:54.010Z,98751.22
2023-02-19T05:56:33.989Z,98749.56
2023-02-19T05:59:06.807Z,98760.09
2023-02-19T06:01:35.242Z,98764.09
2023-02-19T06:04:01.739Z,98777.66
2023-02-19T06:06:28.588Z,98775.56
2023-02-19T06:08:55.123Z,98764.91
2023-02-19T06:11:21.630Z,98765.16
2023-02-19T06:13:50.160Z,98769.97
2023-02-19T06:16:17.768Z,98773.91
2023-02-19T06:18:45.222Z,98775.78
2023-02-19T06:21:12.715Z,98789.41
2023-02-19T06:23:39.987Z,98786.75
2023-02-19T06:26:13.681Z,98808.19
2023-02-19T06:28:41.463Z,98807.19
2023-02-19T06:31:09.871Z,98809.19
2023-02-19T06:33:40.392Z,98817.69
2023-02-19T06:36:12.568Z,98825.28
2023-02-19T06:38:39.374Z,98826.81
2023-02-19T06:41:07.032Z,98835.25
2023-02-19T06:43:34.536Z,98834.13
2023-02-19T06:46:02.757Z,98840.81
2023-02-19T06:48:30.500Z,98840.72
2023-02-19T06:50:56.999Z,98843.00
2023-02-19T06:53:23.790Z,98830.03
2023-02-19T06:56:05.552Z,98834.34
2023-02-19T06:58:33.413Z,98830.03
2023-02-19T07:01:00.354Z,98834.47
2023-02-19T07:03:26.894Z,98840.56
2023-02-19T07:05:54.437Z,98828.66
2023-02-19T07:08:21.214Z,98835.03
2023-02-19T07:10:55.705Z,98842.56
2023-02-19T07:13:22.902Z,98841.19
2023-02-19T07:15:51.941Z,98846.81
2023-02-19T07:18:19.272Z,98851.66
2023-02-19T07:20:45.719Z,98853.63
2023-02-19T07:23:12.223Z,98855.53
2023-02-19T07:25:39.266Z,98859.03
2023-02-19T07:28:06.450Z,98858.19
2023-02-19T07:30:32.950Z,98857.66
2023-02-19T07:32:59.428Z,98867.13
2023-02-19T07:35:26.051Z,98869.19
2023-02-19T07:37:52.462Z,98860.56
2023-02-19T07:40:18.943Z,98874.69
2023-02-19T07:42:45.541Z,98880.53
2023-02-19T07:45:11.953Z,98890.78
2023-02-19T07:47:38.372Z,98895.72
2023-02-19T07:50:05.108Z,98905.28
2023-02-19T07:52:33.986Z,98906.00
2023-02-19T07:55:00.412Z,98912.00
2023-02-19T07:57:31.292Z,98921.09
2023-02-19T07:59:58.840Z,98944.06
2023-02-19T08:02:43.593Z,98938.63
2023-02-19T08:05:10.570Z,98943.66
2023-02-19T08:07:37.667Z,98954.75
2023-02-19T08:10:23.748Z,98960.53
2023-02-19T08:13:16.392Z,98959.97
2023-02-19T08:15:43.110Z,98964.53
2023-02-19T08:18:10.548Z,98975.44
2023-02-19T08:20:37.313Z,98967.00
2023-02-19T08:23:03.992Z,98983.47
2023-02-19T08:25:30.633Z,98979.78
2023-02-19T08:27:57.097Z,98987.63
2023-02-19T08:30:24.332Z,98981.78
2023-02-19T08:32:50.923Z,98984.72
2023-02-19T08:35:17.708Z,98988.41
2023-02-19T08:37:44.148Z,98993.50
2023-02-19T08:40:11.696Z,98997.94
2023-02-19T08:42:38.311Z,99007.75
2023-02-19T08:45:05.628Z,99002.25
2023-02-19T08:47:34.190Z,99001.59
2023-02-19T08:50:00.608Z,98995.66
2023-02-19T08:52:27.054Z,99003.16
2023-02-19T08:54:53.657Z,99007.41
2023-02-19T08:57:20.235Z,99011.00
2023-02-19T08:59:46.652Z,99005.16
2023-02-19T09:02:13.491Z,99017.03
2023-02-19T09:04:40.375Z,99025.31
2023-02-19T09:07:07.843Z,99026.09
2023-02-19T09:09:37.216Z,99027.69
2023-02-19T09:12:08.450Z,99034.06
2023-02-19T09:14:35.764Z,99045.69
2023-02-19T09:17:03.394Z,99044.94
2023-02-19T09:19:29.851Z,99048.56
2023-02-19T09:21:56.610Z,99038.19
2023-02-19T09:24:23.685Z,99036.28
2023-02-19T09:26:54.548Z,99037.72
2023-02-19T09:29:22.412Z,99036.13
2023-02-19T09:31:48.969Z,99052.69
2023-02-19T09:34:15.609Z,99032.16
2023-02-19T09:36:42.156Z,99047.41
2023-02-19T09:39:10.377Z,99047.16
2023-02-19T09:41:46.437Z,99041.00
2023-02-19T09:44:18.260Z,99041.53
2023-02-19T09:46:49.932Z,99053.47
2023-02-19T09:49:21.218Z,99051.91
2023-02-19T09:51:56.379Z,99059.94
2023-02-19T09:54:26.550Z,99061.25
2023-02-19T09:56:57.241Z,99062.69
2023-02-19T09:59:27.269Z,99058.41
2023-02-19T10:02:04.291Z,99075.59
2023-02-19T10:04:30.745Z,99085.94
2023-02-19T10:07:03.375Z,99087.84
2023-02-19T10:09:30.933Z,99081.19
2023-02-19T10:11:58.753Z,99101.50
2023-02-19T10:14:36.692Z,99109.78
2023-02-19T10:17:06.015Z,99104.06
2023-02-19T10:19:34.587Z,99107.31
2023-02-19T10:22:04.211Z,99115.94
2023-02-19T10:24:33.025Z,99111.06
2023-02-19T10:26:59.622Z,99117.00
2023-02-19T10:29:27.264Z,99115.63
2023-02-19T10:32:24.015Z,99118.97
2023-02-19T10:35:09.385Z,99126.50
2023-02-19T10:37:44.054Z,99127.50
2023-02-19T10:40:19.701Z,99148.28
2023-02-19T10:42:52.039Z,99140.59
2023-02-19T10:45:24.463Z,99152.13
2023-02-19T10:47:52.886Z,99150.09
2023-02-19T10:50:30.112Z,99160.19
2023-02-19T10:52:58.857Z,99175.03
2023-02-19T10:55:36.780Z,99161.72
2023-02-19T10:58:24.389Z,99178.00
2023-02-19T11:01:12.244Z,99188.94
2023-02-19T11:03:39.107Z,99181.25
2023-02-19T11:06:11.314Z,99186.34
2023-02-19T11:08:48.421Z,99182.44
2023-02-19T11:11:32.249Z,99187.81
2023-02-19T11:14:02.656Z,99183.53
2023-02-19T11:16:42.074Z,99195.53
2023-02-19T11:19:29.241Z,99201.44
2023-02-19T11:21:56.721Z,99198.03
2023-02-19T11:24:30.979Z,99199.22
2023-02-19T11:27:02.997Z,99188.34
2023-02-19T11:29:34.616Z,99189.91
2023-02-19T11:32:26.125Z,99185.59
2023-02-19T11:35:13.287Z,99193.59
2023-02-19T11:38:03.031Z,99197.31
2023-02-19T11:41:00.405Z,99196.63
2023-02-19T11:43:47.597Z,99199.75
2023-02-19T11:46:39.239Z,99204.06
2023-02-19T11:49:37.417Z,99193.88
2023-02-19T11:52:03.800Z,99194.97
2023-02-19T11:54:49.286Z,99190.03
2023-02-19T11:57:27.644Z,99187.28
2023-02-19T11:59:57.037Z,99185.69
2023-02-19T12:02:51.306Z,99192.13
2023-02-19T12:05:33.824Z,99186.94
2023-02-19T12:08:34.542Z,99189.00
2023-02-19T12:11:32.099Z,99198.50
2023-02-19T12:14:23.345Z,99189.91
2023-02-19T12:17:01.803Z,99178.94
2023-02-19T12:19:44.828Z,99187.19
2023-02-19T12:22:31.302Z,99194.75
2023-02-19T12:25:23.796Z,99198.03
2023-02-19T12:28:04.939Z,99206.31
2023-02-19T12:30:59.774Z,99208.50
2023-02-19T12:34:16.176Z,99184.16
2023-02-19T12:36:50.839Z,99171.19
2023-02-19T12:39:29.238Z,99163.91
2023-02-19T12:42:36.057Z,99170.59
2023-02-19T12:45:17.732Z,99176.41
2023-02-19T12:47:53.232Z,99175.66
2023-02-19T12:50:25.336Z,99173.09
2023-02-19T12:53:23.425Z,99167.59
2023-02-19T12:55:54.897Z,99175.00
2023-02-19T12:58:32.549Z,99168.41
2023-02-19T13:00:59.979Z,99164.34
2023-02-19T13:03:34.825Z,99163.41
2023-02-19T13:06:45.434Z,99171.06
2023-02-19T13:09:15.920Z,99181.31
2023-02-19T13:11:56.252Z,99176.03
2023-02-19T13:14:28.384Z,99196.41
2023-02-19T13:17:02.793Z,99192.97
2023-02-19T13:19:33.256Z,99195.25
2023-02-19T13:23:08.472Z,99195.69
2023-02-19T13:26:20.749Z,99200.28
2023-02-19T13:29:17.960Z,99200.34
2023-02-19T13:32:03.367Z,99210.81
2023-02-19T13:34:48.770Z,99206.63
2023-02-19T13:37:19.254Z,99200.94
2023-02-19T13:39:52.916Z,99200.50
2023-02-19T13:45:37.441Z,99195.66
2023-02-19T13:48:28.294Z,99207.31
2023-02-19T13:51:16.756Z,99210.13
2023-02-19T13:53:47.920Z,99208.31
2023-02-19T13:56:31.917Z,99214.06
2023-02-19T13:59:01.368Z,99207.19
2023-02-19T14:01:56.975Z,99218.84
2023-02-19T14:04:40.151Z,99216.06
2023-02-19T14:07:06.612Z,99208.72
2023-02-19T14:09:36.076Z,99211.41
2023-02-19T14:12:14.331Z,99209.16
2023-02-19T14:14:49.364Z,99211.56
2023-02-19T14:17:45.573Z,99208.56
2023-02-19T14:20:14.750Z,99206.91
2023-02-19T14:22:55.451Z,99223.47
2023-02-19T14:25:31.016Z,99222.06
2023-02-19T14:28:29.931Z,99222.66
2023-02-19T14:31:34.080Z,99230.09
2023-02-19T14:34:04.897Z,99231.19
2023-02-19T14:36:48.553Z,99219.81
2023-02-19T14:39:41.139Z,99226.31
2023-02-19T14:42:22.702Z,99227.16
2023-02-19T14:44:57.239Z,99224.63
2023-02-19T14:47:29.412Z,99226.72
2023-02-19T14:50:08.625Z,99231.06
2023-02-19T14:52:57.550Z,99218.53
2023-02-19T14:55:32.808Z,99219.28
2023-02-19T14:58:06.137Z,99222.53
2023-02-19T15:00:41.069Z,99225.84
2023-02-19T15:03:25.762Z,99237.03
2023-02-19T15:06:00.520Z,99239.84
2023-02-19T15:08:52.968Z,99255.56
2023-02-19T15:11:22.601Z,99258.19
2023-02-19T15:14:16.931Z,99260.03
2023-02-19T15:17:15.907Z,99264.81
2023-02-19T15:19:48.854Z,99269.22
2023-02-19T15:22:30.680Z,99279.75
2023-02-19T15:25:03.317Z,99273.50
2023-02-19T15:27:30.063Z,99279.41
2023-02-19T15:29:59.907Z,99290.13
2023-02-19T15:32:33.085Z,99271.75
2023-02-19T15:35:26.526Z,99284.47
2023-02-19T15:37:55.023Z,99288.22
2023-02-19T15:40:30.555Z,99283.69
2023-02-19T15:43:03.494Z,99282.31
2023-02-19T15:45:41.639Z,99275.66
2023-02-19T15:48:46.931Z,99271.03
2023-02-19T15:51:57.916Z,99262.63
2023-02-19T15:54:30.857Z,99258.88
2023-02-19T15:57:07.065Z,99261.69
2023-02-19T16:00:08.756Z,99254.50
2023-02-19T16:02:36.053Z,99253.31
2023-02-19T16:05:15.543Z,99237.91
2023-02-19T16:07:45.035Z,99238.69
2023-02-19T16:10:26.501Z,99234.34
2023-02-19T16:13:08.194Z,99239.75
2023-02-19T16:15:39.969Z,99248.59
2023-02-19T16:18:33.403Z,99246.69
2023-02-19T16:21:02.808Z,99237.34
2023-02-19T16:23:32.767Z,99250.97
2023-02-19T16:26:03.132Z,99236.16
2023-02-19T16:28:50.164Z,99237.69
2023-02-19T16:31:35.371Z,99249.47
2023-02-19T16:34:20.745Z,99255.00
2023-02-19T16:36:50.567Z,99261.75
2023-02-19T16:39:18.975Z,99261.41
2023-02-19T16:41:48.176Z,99263.88
2023-02-19T16:44:20.628Z,99267.66
2023-02-19T16:46:51.884Z,99270.44
2023-02-19T16:49:18.901Z,99261.63
2023-02-19T16:51:46.884Z,99278.66
2023-02-19T16:54:13.674Z,99271.63
2023-02-19T16:56:40.169Z,99278.44
2023-02-19T16:59:07.609Z,99286.03
2023-02-19T17:01:36.024Z,99289.41
2023-02-19T17:04:09.482Z,99296.72
2023-02-19T17:06:37.802Z,99293.34
2023-02-19T17:09:06.454Z,99302.56
2023-02-19T17:11:33.098Z,99317.13
2023-02-19T17:13:59.578Z,99326.78
2023-02-19T17:16:28.516Z,99332.13
2023-02-19T17:18:55.594Z,99340.44
2023-02-19T17:21:27.980Z,99353.41
2023-02-19T17:23:54.572Z,99345.66
2023-02-19T17:26:28.015Z,99347.13
2023-02-19T17:29:02.378Z,99349.19
2023-02-19T17:31:29.285Z,99350.03
2023-02-19T17:33:56.189Z,99359.00
2023-02-19T17:36:26.843Z,99362.72
2023-02-19T17:38:54.185Z,99362.00
2023-02-19T17:41:20.672Z,99368.03
2023-02-19T17:43:47.587Z,99369.75
2023-02-19T17:46:23.844Z,99361.25
2023-02-19T17:48:50.807Z,99363.69
2023-02-19T17:51:17.425Z,99362.50
2023-02-19T17:53:46.610Z,99362.97
2023-02-19T17:56:22.754Z,99380.25
2023-02-19T17:58:49.254Z,99388.50
2023-02-19T18:01:15.955Z,99393.69
2023-02-19T18:03:42.736Z,99383.16
2023-02-19T18:06:09.316Z,99388.00
2023-02-19T18:08:35.910Z,99388.75
2023-02-19T18:11:03.003Z,99395.25
2023-02-19T18:13:29.821Z,99391.13
2023-02-19T18:15:56.256Z,99395.84
2023-02-19T18:18:25.545Z,99394.53
2023-02-19T18:20:52.017Z,99385.47
2023-02-19T18:23:20.546Z,99387.72
2023-02-19T18:25:47.121Z,99386.53
2023-02-19T18:28:14.904Z,99385.31
2023-02-19T18:30:41.442Z,99384.19
2023-02-19T18:33:10.989Z,99379.03
2023-02-19T18:35:38.426Z,99391.97
2023-02-19T18:38:05.526Z,99401.91
2023-02-19T18:40:31.998Z,99388.56
2023-02-19T18:42:58.787Z,99390.16
2023-02-19T18:45:26.095Z,99396.00
2023-02-19T18:47:52.632Z,99397.53
2023-02-19T18:50:19.682Z,99401.78
2023-02-19T18:52:46.369Z,99392.81
2023-02-19T18:55:13.216Z,99384.38
2023-02-19T18:57:39.780Z,99391.16
2023-02-19T19:00:07.990Z,99391.16
2023-02-19T19:02:48.234Z,99389.16
2023-02-19T19:05:23.569Z,99385.25
2023-02-19T19:07:51.829Z,99381.31
2023-02-19T19:10:18.928Z,99386.09
2023-02-19T19:12:45.645Z,99396.91
2023-02-19T19:15:12.146Z,99389.59
2023-02-19T19:17:40.559Z,99392.47
2023-02-19T19:20:08.317Z,99390.50
2023-02-19T19:22:34.693Z,99390.75
2023-02-19T19:25:01.314Z,99394.88
2023-02-19T19:27:27.709Z,99392.22
2023-02-19T19:29:54.374Z,99391.66
2023-02-19T19:32:20.902Z,99387.53
2023-02-19T19:34:47.582Z,99395.88
2023-02-19T19:37:14.042Z,99403.78
2023-02-19T19:39:43.231Z,99404.28
2023-02-19T19:42:11.845Z,99402.09
2023-02-19T19:44:38.266Z,99402.63
2023-02-19T19:47:04.841Z,99408.59
2023-02-19T19:49:31.441Z,99412.66
2023-02-19T19:52:01.009Z,99416.00
2023-02-19T19:54:28.183Z,99415.19
2023-02-19T19:56:54.695Z,99417.81
2023-02-19T19:59:23.129Z,99417.34
2023-02-19T20:02:01.783Z,99408.75
2023-02-19T20:04:29.672Z,99417.88
2023-02-19T20:06:58.600Z,99417.09
2023-02-19T20:09:25.537Z,99421.69
2023-02-19T20:11:53.763Z,99417.47
2023-02-19T20:14:21.670Z,99425.16
2023-02-19T20:16:48.438Z,99433.81
2023-02-19T20:19:16.466Z,99430.31
2023-02-19T20:21:47.283Z,99433.75
2023-02-19T20:24:25.967Z,99438.97
2023-02-19T20:27:02.455Z,99442.63
2023-02-19T20:29:32.178Z,99449.41
2023-02-19T20:32:00.213Z,99451.84
2023-02-19T20:34:27.180Z,99458.56
2023-02-19T20:36:54.117Z,99453.06
2023-02-19T20:39:21.550Z,99448.22
2023-02-19T20:41:51.889Z,99443.28
2023-02-19T20:44:19.319Z,99450.53
2023-02-19T20:46:48.096Z,99454.28
2023-02-19T20:49:16.957Z,99444.31
2023-02-19T20:51:44.566Z,99443.94
2023-02-19T20:54:11.057Z,99440.53
2023-02-19T20:56:37.536Z,99442.63
2023-02-19T20:59:04.126Z,99444.50
2023-02-19T21:01:30.556Z,99459.59
2023-02-19T21:03:57.020Z,99452.00
2023-02-19T21:06:24.659Z,99468.41
2023-02-19T21:08:51.127Z,99469.91
2023-02-19T21:11:17.781Z,99475.09
2023-02-19T21:13:44.273Z,99470.63
2023-02-19T21:16:11.147Z,99492.44
2023-02-19T21:18:37.830Z,99490.09
2023-02-19T21:21:04.351Z,99483.00
2023-02-19T21:23:30.829Z,99486.50
2023-02-19T21:25:57.351Z,99495.97
2023-02-19T21:28:24.632Z,99501.13
2023-02-19T21:30:51.160Z,99499.78
2023-02-19T21:33:17.815Z,99503.00
2023-02-19T21:35:45.208Z,99507.72
2023-02-19T21:38:11.706Z,99507.44
2023-02-19T21:40:38.253Z,99514.28
2023-02-19T21:43:04.880Z,99509.69
2023-02-19T21:45:31.393Z,99508.28
2023-02-19T21:47:57.939Z,99506.00
2023-02-19T21:50:24.479Z,99507.97
2023-02-19T21:52:50.958Z,99502.25
2023-02-19T21:55:17.403Z,99508.44
2023-02-19T21:57:43.840Z,99511.94
2023-02-19T22:00:10.831Z,99503.97
2023-02-19T22:02:37.327Z,99515.38
2023-02-19T22:05:03.988Z,99514.41
2023-02-19T22:07:30.639Z,99513.09
2023-02-19T22:09:57.050Z,99511.44
2023-02-19T22:12:23.548Z,99515.00
2023-02-19T22:14:50.003Z,99519.00
2023-02-19T22:17:16.459Z,99532.09
2023-02-19T22:19:42.916Z,99537.81
2023-02-19T22:22:09.512Z,99537.88
2023-02-19T22:24:35.984Z,99534.03
2023-02-19T22:27:02.480Z,99527.34
2023-02-19T22:29:28.983Z,99529.13
2023-02-19T22:31:55.647Z,99529.22
2023-02-19T22:34:22.319Z,99531.84
2023-02-19T22:36:48.811Z,99529.13
2023-02-19T22:39:26.628Z,99535.22
2023-02-19T22:41:53.417Z,99531.72
2023-02-19T22:44:19.958Z,99529.06
2023-02-19T22:47:04.639Z,99527.59
2023-02-19T22:49:31.248Z,99525.25
2023-02-19T22:52:03.118Z,99522.06
2023-02-19T22:54:29.570Z,99523.66
2023-02-19T22:56:56.548Z,99514.34
2023-02-19T22:59:23.225Z,99506.47
2023-02-19T23:01:50.365Z,99514.66
2023-02-19T23:04:17.117Z,99523.84
2023-02-19T23:06:45.348Z,99523.00
2023-02-19T23:09:18.329Z,99535.16
2023-02-19T23:11:45.654Z,99528.06
2023-02-19T23:14:13.500Z,99533.34
2023-02-19T23:16:39.894Z,99540.16
2023-02-19T23:19:09.466Z,99541.25
2023-02-19T23:21:35.979Z,99553.41
2023-02-19T23:24:02.387Z,99554.56
2023-02-19T23:26:28.861Z,99544.22
2023-02-19T23:28:55.805Z,99538.97
2023-02-19T23:31:22.371Z,99530.66
2023-02-19T23:33:49.190Z,99529.06
2023-02-19T23:36:15.871Z,99536.63
2023-02-19T23:38:46.809Z,99527.09
2023-02-19T23:41:15.308Z,99524.41
2023-02-19T23:43:42.023Z,99518.38
2023-02-19T23:46:09.508Z,99514.31
2023-02-19T23:48:36.020Z,99507.66
2023-02-19T23:51:02.700Z,99505.81
2023-02-19T23:53:29.232Z,99503.16
2023-02-19T23:55:55.976Z,99501.09
2023-02-19T23:58:22.459Z,99492.84
